INFORMACIÓN METAR y TAF
METAR FOR BGSF
ADDS - METARS form results

(0445 UTC 27 October 2021)
Data provider http://aviationweather.gov/metar/data/
 
METAR text: BGSF 270350Z AUTO 05008KT 9999NDV BKN190/// M19/M21 Q1009
Conditions at: BGSF (SONDRE STROMFJOR, GL) observed 0350 UTC 27 October 2021
Temperature: -19.0°C (-2°F)
Dewpoint: -21.0°C (-6°F) [RH = 84%]
Pressure (altimeter): 29.79 inches Hg (1009.0 mb)
Winds: from the NE (50 degrees) at 9 MPH (8 knots; 4.1 m/s)
Visibility: missing
Ceiling: 19000 feet AGL
Clouds: broken clouds at 19000 feet AGL
Weather: no significant weather observed at this time

Forecast for: COR
Text: TAF COR BGSF 261851Z 2618/2702 06009KT 9999 FEW200
Forecast period: 1800 UTC 26 October 2021 to 0200 UTC 27 October 2021
Forecast type: FROM: standard forecast or significant change
Winds: from the ENE (60 degrees) at 10 MPH (9 knots; 4.6 m/s)
Visibility: 6 or more miles (10+ km)
Ceiling: at least 12,000 feet AGL
Clouds: few clouds at 20000 feet AGL
Weather: no significant weather forecast for this period

 MAPA DE AEROPUERTO

 INFORMACIÓN DE PISTA